Time;durP1;ratioP1;P1;durP2;ratioP2;P2;SDS_P1;SDS_P2;PMS_P1;PMS_P2;Temp;Humidity;BMP_temperature;BMP_pressure;BME280_temperature;BME280_humidity;BME280_pressure;Samples;Min_cycle;Max_cycle;Signal;HPM_P1;HPM_P2
2021/05/11 00:01:29;;;;;;;16.77;9.20;;;;;;;;;;5031180;28;20025;-64
2021/05/11 00:03:55;;;;;;;17.40;9.52;;;;;;;;;;5031364;28;20034;-64
2021/05/11 00:06:21;;;;;;;19.25;9.27;;;;;;;;;;5030630;28;20113;-66
2021/05/11 00:08:47;;;;;;;18.15;9.68;;;;;;;;;;5030179;28;20053;-60
2021/05/11 00:11:13;;;;;;;18.65;10.00;;;;;;;;;;5030662;28;20041;-65
2021/05/11 00:13:39;;;;;;;18.30;9.07;;;;;;;;;;5030895;28;20025;-64
2021/05/11 00:16:05;;;;;;;17.45;8.98;;;;;;;;;;5032308;28;20104;-64
2021/05/11 00:18:33;;;;;;;18.73;8.43;;;;;;;;;;5031776;28;20029;-62
2021/05/11 00:20:59;;;;;;;16.75;7.88;;;;;;;;;;5031166;28;20029;-62
2021/05/11 00:23:25;;;;;;;17.10;7.55;;;;;;;;;;5031687;28;20021;-64
2021/05/11 00:25:51;;;;;;;17.65;7.70;;;;;;;;;;5030159;28;20108;-64
2021/05/11 00:28:17;;;;;;;18.25;7.72;;;;;;;;;;5030070;28;20116;-64
2021/05/11 00:30:43;;;;;;;15.40;7.15;;;;;;;;;;5031186;28;20036;-65
2021/05/11 00:33:09;;;;;;;15.70;7.35;;;;;;;;;;5031573;28;20034;-63
2021/05/11 00:35:35;;;;;;;16.58;6.90;;;;;;;;;;5032219;28;20024;-64
2021/05/11 00:38:01;;;;;;;15.18;6.78;;;;;;;;;;5029858;28;20022;-63
2021/05/11 00:40:27;;;;;;;16.58;7.55;;;;;;;;;;5030106;28;20032;-63
2021/05/11 00:42:53;;;;;;;16.83;6.85;;;;;;;;;;5029887;28;20021;-64
2021/05/11 00:45:19;;;;;;;15.63;6.82;;;;;;;;;;5030872;28;20470;-63
2021/05/11 00:47:45;;;;;;;17.00;6.35;;;;;;;;;;5031243;28;20033;-64
2021/05/11 00:50:12;;;;;;;15.00;6.30;;;;;;;;;;5033435;28;20473;-63
2021/05/11 00:52:39;;;;;;;14.80;5.90;;;;;;;;;;5034100;28;20182;-64
2021/05/11 00:55:05;;;;;;;15.32;6.35;;;;;;;;;;5033817;28;20029;-63
2021/05/11 00:57:32;;;;;;;15.25;6.18;;;;;;;;;;5035119;28;20394;-62
2021/05/11 01:00:00;;;;;;;13.88;5.72;;;;;;;;;;5034885;28;20017;-63
2021/05/11 01:02:26;;;;;;;14.27;6.00;;;;;;;;;;5034814;28;20159;-65
2021/05/11 01:04:52;;;;;;;14.95;5.68;;;;;;;;;;5034565;28;20120;-63
2021/05/11 01:07:18;;;;;;;14.38;5.40;;;;;;;;;;5034336;28;20100;-65
2021/05/11 01:09:45;;;;;;;14.05;5.20;;;;;;;;;;5034545;28;20036;-64
2021/05/11 01:12:11;;;;;;;14.52;5.35;;;;;;;;;;5034367;28;20029;-63
2021/05/11 01:14:37;;;;;;;13.82;5.78;;;;;;;;;;5068984;22;20044;-58
2021/05/11 01:17:03;;;;;;;13.80;5.60;;;;;;;;;;5072735;28;20453;-60
2021/05/11 01:19:44;;;;;;;13.18;5.32;;;;;;;;;;5072939;28;20024;-58
2021/05/11 01:24:45;;;;;;;13.13;5.65;;;;;;;;;;5073699;28;20056;-59
2021/05/11 01:49:11;;;;;;;21.27;10.60;;;;;;;;;;5073843;28;20089;-56
2021/05/11 01:57:21;;;;;;;16.05;7.00;;;;;;;;;;5073969;28;20029;-59
2021/05/11 02:11:22;;;;;;;15.30;6.70;;;;;;;;;;5072929;28;20556;-60
2021/05/11 02:24:48;;;;;;;15.35;6.30;;;;;;;;;;5073388;28;20071;-60
2021/05/11 02:27:14;;;;;;;14.68;5.95;;;;;;;;;;5073218;28;20025;-58
2021/05/11 02:29:40;;;;;;;15.77;5.88;;;;;;;;;;5072537;28;20024;-59
2021/05/11 02:32:06;;;;;;;15.52;6.50;;;;;;;;;;5072953;28;20028;-58
2021/05/11 02:34:32;;;;;;;14.65;6.32;;;;;;;;;;5073439;28;20036;-59
2021/05/11 02:36:58;;;;;;;15.55;6.75;;;;;;;;;;5071651;28;20033;-59
2021/05/11 02:39:24;;;;;;;14.57;6.00;;;;;;;;;;5072228;28;20035;-59
2021/05/11 02:41:50;;;;;;;14.70;6.30;;;;;;;;;;5072763;28;20513;-56
2021/05/11 02:44:19;;;;;;;15.93;5.97;;;;;;;;;;5071276;28;20065;-58
2021/05/11 02:46:45;;;;;;;;;;;;;;;;;;5073250;28;20043;-60
2021/05/11 02:49:12;;;;;;;14.35;5.70;;;;;;;;;;5072047;28;20348;-59
2021/05/11 02:51:38;;;;;;;15.07;5.70;;;;;;;;;;5072753;28;20032;-60
2021/05/11 02:54:04;;;;;;;13.18;5.60;;;;;;;;;;5072879;28;20423;-58
2021/05/11 02:56:30;;;;;;;13.93;5.57;;;;;;;;;;5072729;28;20035;-59
2021/05/11 02:58:56;;;;;;;14.18;5.82;;;;;;;;;;5071836;28;20029;-59
2021/05/11 03:01:23;;;;;;;14.60;6.07;;;;;;;;;;5072597;28;20104;-59
2021/05/11 03:03:48;;;;;;;15.45;6.35;;;;;;;;;;5072461;28;20017;-56
2021/05/11 03:06:14;;;;;;;18.75;7.50;;;;;;;;;;5072192;28;20453;-59
2021/05/11 03:08:43;;;;;;;15.63;7.20;;;;;;;;;;5070453;28;20028;-60
2021/05/11 03:11:09;;;;;;;14.63;6.55;;;;;;;;;;5072452;28;20492;-59
2021/05/11 03:13:35;;;;;;;17.77;7.40;;;;;;;;;;5072386;28;20043;-60
2021/05/11 03:16:02;;;;;;;15.75;7.20;;;;;;;;;;5071903;28;20166;-58
2021/05/11 03:18:28;;;;;;;15.18;6.88;;;;;;;;;;5070853;28;20028;-59
2021/05/11 03:20:54;;;;;;;17.75;7.60;;;;;;;;;;5069769;28;20396;-59
2021/05/11 03:23:20;;;;;;;16.25;7.68;;;;;;;;;;5071837;28;20100;-60
2021/05/11 03:25:46;;;;;;;14.95;6.82;;;;;;;;;;5072071;28;20033;-60
2021/05/11 03:28:12;;;;;;;15.45;7.88;;;;;;;;;;5072252;28;20020;-60
2021/05/11 03:30:41;;;;;;;14.40;6.82;;;;;;;;;;5070205;28;20559;-59
2021/05/11 03:33:06;;;;;;;;;;;;;;;;;;5072989;28;20384;-58
2021/05/11 03:35:32;;;;;;;15.25;7.60;;;;;;;;;;5070384;28;20002;-59
2021/05/11 03:37:58;;;;;;;18.02;7.97;;;;;;;;;;5070710;28;20016;-60
2021/05/11 03:40:24;;;;;;;16.05;7.40;;;;;;;;;;5071192;28;20021;-60
2021/05/11 03:43:00;;;;;;;17.73;7.53;;;;;;;;;;5070628;28;20459;-58
2021/05/11 03:45:32;;;;;;;19.02;8.30;;;;;;;;;;5070518;28;20020;-60
2021/05/11 03:47:58;;;;;;;20.60;10.05;;;;;;;;;;5071805;28;20074;-58
2021/05/11 03:50:24;;;;;;;16.92;8.15;;;;;;;;;;5071211;28;20032;-58
2021/05/11 03:52:50;;;;;;;16.85;7.32;;;;;;;;;;5072131;28;20341;-61
2021/05/11 03:55:16;;;;;;;15.77;7.43;;;;;;;;;;5070791;28;20389;-61
2021/05/11 03:57:42;;;;;;;16.67;7.82;;;;;;;;;;5071805;28;20396;-62
2021/05/11 04:00:08;;;;;;;16.10;7.50;;;;;;;;;;5071432;28;20029;-61
2021/05/11 04:02:35;;;;;;;18.73;7.70;;;;;;;;;;5071680;28;20115;-59
2021/05/11 04:05:07;;;;;;;19.05;7.90;;;;;;;;;;5072534;28;20044;-61
2021/05/11 04:07:33;;;;;;;20.48;7.70;;;;;;;;;;5071689;28;20476;-61
2021/05/11 04:10:01;;;;;;;17.83;7.30;;;;;;;;;;5069725;28;20082;-60
2021/05/11 04:17:47;;;;;;;16.80;8.45;;;;;;;;;;5071889;28;20262;-61
2021/05/11 04:20:13;;;;;;;17.33;8.18;;;;;;;;;;5071080;28;20032;-60
2021/05/11 04:22:39;;;;;;;16.75;8.70;;;;;;;;;;5070076;28;20094;-60
2021/05/11 04:25:06;;;;;;;18.52;10.15;;;;;;;;;;5073651;28;20442;-59
2021/05/11 04:27:32;;;;;;;18.48;9.55;;;;;;;;;;5074091;28;20129;-60
2021/05/11 04:30:01;;;;;;;19.83;10.10;;;;;;;;;;5074783;28;20786;-60
2021/05/11 04:32:27;;;;;;;22.17;10.18;;;;;;;;;;5075531;28;20078;-59
2021/05/11 04:34:53;;;;;;;17.50;8.82;;;;;;;;;;5075630;28;20028;-63
2021/05/11 04:37:19;;;;;;;18.90;9.25;;;;;;;;;;5075120;28;20029;-61
2021/05/11 04:39:45;;;;;;;20.13;9.38;;;;;;;;;;5073165;28;20400;-61
2021/05/11 04:42:12;;;;;;;20.92;11.60;;;;;;;;;;5074989;28;20027;-59
2021/05/11 04:44:39;;;;;;;28.67;18.05;;;;;;;;;;5073576;28;20038;-60
2021/05/11 04:47:21;;;;;;;19.48;10.63;;;;;;;;;;5073634;28;20392;-61
2021/05/11 04:49:47;;;;;;;18.27;9.85;;;;;;;;;;5074366;28;20142;-59
2021/05/11 04:52:13;;;;;;;19.75;9.98;;;;;;;;;;5074966;28;20074;-58
2021/05/11 04:54:39;;;;;;;17.30;9.52;;;;;;;;;;5074432;28;20028;-61
2021/05/11 04:57:05;;;;;;;18.90;9.30;;;;;;;;;;5073275;28;20408;-57
2021/05/11 04:59:31;;;;;;;16.88;8.88;;;;;;;;;;5074237;28;20047;-60
2021/05/11 05:01:57;;;;;;;18.65;10.30;;;;;;;;;;5073143;28;20028;-58
2021/05/11 05:04:23;;;;;;;18.98;10.48;;;;;;;;;;5073878;28;20480;-61
2021/05/11 05:06:49;;;;;;;20.02;10.43;;;;;;;;;;5074091;28;20098;-62
2021/05/11 05:09:15;;;;;;;17.65;10.25;;;;;;;;;;5073205;28;20060;-59
2021/05/11 05:11:41;;;;;;;19.85;11.00;;;;;;;;;;5072533;28;20029;-60
2021/05/11 05:14:08;;;;;;;17.50;10.60;;;;;;;;;;5073759;28;20099;-60
2021/05/11 05:16:35;;;;;;;17.67;9.70;;;;;;;;;;5073759;28;20395;-60
2021/05/11 05:19:01;;;;;;;16.95;9.50;;;;;;;;;;5071362;28;20032;-59
2021/05/11 05:21:27;;;;;;;22.13;9.88;;;;;;;;;;5072349;28;20060;-61
2021/05/11 05:24:02;;;;;;;18.13;9.93;;;;;;;;;;5073771;28;20317;-59
2021/05/11 05:26:29;;;;;;;18.60;9.00;;;;;;;;;;5074198;28;20083;-55
2021/05/11 05:28:57;;;;;;;19.20;9.25;;;;;;;;;;5072941;28;20024;-60
2021/05/11 05:31:23;;;;;;;17.57;9.10;;;;;;;;;;5072650;28;20118;-62
2021/05/11 05:33:49;;;;;;;17.92;10.05;;;;;;;;;;5073516;28;20158;-60
2021/05/11 05:36:15;;;;;;;18.52;9.45;;;;;;;;;;5070844;28;20029;-60
2021/05/11 05:38:42;;;;;;;19.02;9.82;;;;;;;;;;5071363;28;20539;-59
2021/05/11 05:41:11;;;;;;;19.13;9.70;;;;;;;;;;5073165;28;20052;-58
2021/05/11 05:43:37;;;;;;;19.52;9.85;;;;;;;;;;5073524;28;20499;-60
2021/05/11 05:46:03;;;;;;;17.98;9.60;;;;;;;;;;5058213;28;20103;-60
2021/05/11 05:48:29;;;;;;;17.80;10.05;;;;;;;;;;5057856;28;20384;-60
2021/05/11 05:51:03;;;;;;;19.42;9.93;;;;;;;;;;5087619;28;20020;-61
2021/05/11 05:53:36;;;;;;;17.05;8.80;;;;;;;;;;5062480;28;20029;-59
2021/05/11 05:56:03;;;;;;;16.88;9.27;;;;;;;;;;5069067;28;20647;-60
2021/05/11 05:58:29;;;;;;;18.52;8.50;;;;;;;;;;5068325;28;20121;-61
2021/05/11 06:01:00;;;;;;;16.60;9.13;;;;;;;;;;5069371;28;20315;-60
2021/05/11 06:06:10;;;;;;;16.67;9.15;;;;;;;;;;5073543;28;20062;-60
2021/05/11 06:08:37;;;;;;;16.13;8.63;;;;;;;;;;5072719;28;20036;-60
2021/05/11 06:11:14;;;;;;;17.58;8.80;;;;;;;;;;5073242;28;20404;-61
2021/05/11 06:19:00;;;;;;;15.63;8.60;;;;;;;;;;5070318;28;20378;-61
2021/05/11 06:21:26;;;;;;;16.30;8.88;;;;;;;;;;5060485;28;20025;-61
2021/05/11 06:23:52;;;;;;;15.45;8.43;;;;;;;;;;5056285;28;20507;-61
2021/05/11 06:26:18;;;;;;;17.73;8.18;;;;;;;;;;5055562;28;20029;-61
2021/05/11 06:28:45;;;;;;;15.93;8.73;;;;;;;;;;5067730;28;20053;-61
2021/05/11 06:31:11;;;;;;;16.00;8.00;;;;;;;;;;5052480;28;20029;-60
2021/05/11 06:33:37;;;;;;;15.55;8.02;;;;;;;;;;5052376;28;20075;-61
2021/05/11 06:36:03;;;;;;;15.60;8.30;;;;;;;;;;5052286;28;20108;-61
2021/05/11 06:38:30;;;;;;;16.92;7.80;;;;;;;;;;5052852;28;20032;-59
2021/05/11 06:40:57;;;;;;;16.20;8.18;;;;;;;;;;5051421;28;20032;-60
2021/05/11 06:43:28;;;;;;;15.65;8.43;;;;;;;;;;5067548;28;20083;-60
2021/05/11 06:54:09;;;;;;;15.90;8.18;;;;;;;;;;5052493;28;20029;-61
2021/05/11 06:56:37;;;;;;;15.88;8.05;;;;;;;;;;5052052;28;20025;-60
2021/05/11 06:59:03;;;;;;;15.65;7.82;;;;;;;;;;5051506;28;20032;-59
2021/05/11 07:01:29;;;;;;;16.63;9.02;;;;;;;;;;5051737;28;20104;-60
2021/05/11 07:03:55;;;;;;;16.90;9.70;;;;;;;;;;5067559;28;20021;-59
2021/05/11 07:06:22;;;;;;;17.25;8.80;;;;;;;;;;5072022;28;20047;-60
2021/05/11 07:09:05;;;;;;;17.05;9.20;;;;;;;;;;5071204;28;20044;-60
2021/05/11 07:16:44;;;;;;;16.75;9.60;;;;;;;;;;5029414;28;20049;-62
2021/05/11 07:19:10;;;;;;;16.80;8.70;;;;;;;;;;5038203;28;20021;-65
2021/05/11 07:21:36;;;;;;;16.45;8.60;;;;;;;;;;5030526;28;20076;-63
2021/05/11 07:24:04;;;;;;;17.65;8.68;;;;;;;;;;5032293;28;20049;-61
2021/05/11 07:26:30;;;;;;;18.85;7.78;;;;;;;;;;5013097;28;20026;-62
2021/05/11 07:29:06;;;;;;;16.95;7.40;;;;;;;;;;5011884;28;20026;-63
2021/05/11 07:31:32;;;;;;;17.30;7.75;;;;;;;;;;5011924;28;20025;-58
2021/05/11 07:34:01;;;;;;;16.08;7.85;;;;;;;;;;5010812;28;20410;-58
2021/05/11 07:36:27;;;;;;;17.95;7.32;;;;;;;;;;5012468;28;20025;-58
2021/05/11 07:38:53;;;;;;;15.00;7.53;;;;;;;;;;5010503;28;20034;-58
2021/05/11 07:41:19;;;;;;;15.35;7.32;;;;;;;;;;5012500;28;20025;-58
2021/05/11 07:43:49;;;;;;;16.55;7.88;;;;;;;;;;5012166;28;20079;-57
2021/05/11 07:46:43;;;;;;;;;;;;;;;;;;;;;
2021/05/11 07:49:16;;;;;;;15.43;7.30;;;;;;;;;;5011112;28;20030;-55
2021/05/11 08:16:04;;;;;;;12.93;5.35;;;;;;;;;;5010753;28;20604;-57
2021/05/11 08:29:11;;;;;;;15.95;6.00;;;;;;;;;;5009580;28;20085;-60
2021/05/11 08:31:40;;;;;;;13.35;5.68;;;;;;;;;;5011651;28;20036;-60
2021/05/11 08:34:06;;;;;;;13.02;5.80;;;;;;;;;;5011875;28;20026;-63
2021/05/11 08:36:32;;;;;;;14.82;5.60;;;;;;;;;;5011697;28;20104;-63
2021/05/11 08:38:59;;;;;;;15.07;7.05;;;;;;;;;;5010628;28;20581;-59
2021/05/11 08:41:25;;;;;;;14.10;5.90;;;;;;;;;;5011305;28;20026;-62
2021/05/11 08:43:51;;;;;;;13.70;5.82;;;;;;;;;;5009964;28;20462;-61
2021/05/11 08:46:17;;;;;;;13.70;5.90;;;;;;;;;;5011271;28;20026;-62
2021/05/11 08:48:44;;;;;;;14.23;5.68;;;;;;;;;;5009877;28;20026;-61
2021/05/11 08:51:14;;;;;;;13.07;5.50;;;;;;;;;;5010627;28;20037;-63
2021/05/11 09:04:56;;;;;;;12.90;5.63;;;;;;;;;;5011328;28;20577;-60
2021/05/11 09:26:50;;;;;;;14.07;6.18;;;;;;;;;;5014245;28;20297;-60
2021/05/11 10:49:22;;;;;;;14.18;6.22;;;;;;;;;;5010429;28;20490;-59
2021/05/11 10:52:02;;;;;;;14.27;6.20;;;;;;;;;;5011463;28;20434;-59
2021/05/11 10:54:47;;;;;;;13.70;6.22;;;;;;;;;;5013136;28;20406;-61
2021/05/11 10:57:30;;;;;;;13.45;6.75;;;;;;;;;;5013180;28;20025;-59
2021/05/11 11:00:15;;;;;;;13.95;6.20;;;;;;;;;;5012490;28;20022;-59
2021/05/11 11:02:48;;;;;;;13.60;6.20;;;;;;;;;;5011954;28;20036;-62
2021/05/11 11:05:34;;;;;;;13.90;6.90;;;;;;;;;;5011463;28;20022;-62
2021/05/11 11:08:00;;;;;;;13.35;6.38;;;;;;;;;;5012652;28;20072;-60
2021/05/11 11:10:29;;;;;;;14.25;6.35;;;;;;;;;;5010461;28;20017;-58
2021/05/11 11:12:56;;;;;;;14.38;6.50;;;;;;;;;;5011449;28;20021;-61
2021/05/11 11:15:22;;;;;;;14.70;6.75;;;;;;;;;;5012436;28;20041;-57
2021/05/11 11:17:52;;;;;;;15.60;6.85;;;;;;;;;;5012863;28;20106;-60
2021/05/11 11:20:21;;;;;;;13.30;6.15;;;;;;;;;;5012157;28;20054;-57
2021/05/11 11:25:59;;;;;;;13.63;6.05;;;;;;;;;;5012895;28;20088;-61
2021/05/11 11:28:29;;;;;;;15.38;6.07;;;;;;;;;;5011335;28;20026;-60
2021/05/11 11:30:55;;;;;;;13.85;6.25;;;;;;;;;;5014499;28;20024;-61
2021/05/11 11:33:21;;;;;;;13.82;5.80;;;;;;;;;;5020100;28;20030;-58
2021/05/11 11:35:47;;;;;;;14.57;5.93;;;;;;;;;;5023934;28;20013;-59
2021/05/11 11:38:24;;;;;;;14.02;5.72;;;;;;;;;;5031415;28;20477;-60
2021/05/11 11:40:57;;;;;;;12.75;5.68;;;;;;;;;;5030417;28;20041;-60
2021/05/11 11:43:27;;;;;;;15.60;6.15;;;;;;;;;;4669170;28;9999698;-61
2021/05/11 11:45:53;;;;;;;13.63;5.22;;;;;;;;;;5014988;28;20026;-59
2021/05/11 11:48:20;;;;;;;14.50;5.82;;;;;;;;;;5017118;28;20096;-61
2021/05/11 11:50:53;;;;;;;15.02;6.38;;;;;;;;;;5015588;28;20021;-63
2021/05/11 11:53:23;;;;;;;13.15;5.63;;;;;;;;;;5018065;28;20044;-54
2021/05/11 11:58:27;;;;;;;13.55;5.90;;;;;;;;;;5023771;28;20137;-58
2021/05/11 12:00:53;;;;;;;14.23;5.93;;;;;;;;;;5027844;28;20022;-60
2021/05/11 12:03:24;;;;;;;15.45;6.45;;;;;;;;;;5028515;28;20612;-60
2021/05/11 12:05:59;;;;;;;16.73;6.55;;;;;;;;;;5032483;28;20049;-60
2021/05/11 12:08:28;;;;;;;14.13;6.10;;;;;;;;;;5015441;28;20030;-61
2021/05/11 12:10:55;;;;;;;;;;;;;;;;;;5008912;28;20076;-61
2021/05/11 12:13:25;;;;;;;15.82;6.53;;;;;;;;;;5010303;28;20364;-61
2021/05/11 12:16:07;;;;;;;13.93;6.20;;;;;;;;;;5020087;28;20033;-62
2021/05/11 12:18:33;;;;;;;15.25;6.65;;;;;;;;;;5017623;28;20057;-56
2021/05/11 12:21:01;;;;;;;14.73;5.90;;;;;;;;;;5016946;28;20029;-59
2021/05/11 12:23:27;;;;;;;16.27;6.20;;;;;;;;;;5018609;28;20034;-58
2021/05/11 12:25:57;;;;;;;14.52;6.30;;;;;;;;;;5017485;28;20483;-60
2021/05/11 12:28:30;;;;;;;13.38;6.28;;;;;;;;;;5019114;28;20600;-59
2021/05/11 12:30:56;;;;;;;16.50;6.95;;;;;;;;;;5009792;28;20045;-62
2021/05/11 12:33:31;;;;;;;16.38;6.60;;;;;;;;;;5017799;28;20022;-60
2021/05/11 12:35:57;;;;;;;14.70;6.43;;;;;;;;;;5019703;28;20167;-58
2021/05/11 12:38:26;;;;;;;16.33;6.32;;;;;;;;;;5024135;28;20028;-54
2021/05/11 12:41:19;;;;;;;15.10;6.65;;;;;;;;;;5021132;28;20024;-61
2021/05/11 12:43:48;;;;;;;16.50;7.38;;;;;;;;;;5020181;28;20018;-59
2021/05/11 12:46:15;;;;;;;14.00;6.50;;;;;;;;;;5021884;28;20028;-59
2021/05/11 12:48:52;;;;;;;15.15;6.80;;;;;;;;;;5023239;28;20128;-58
2021/05/11 12:51:35;;;;;;;14.60;7.00;;;;;;;;;;5022631;28;20107;-58
2021/05/11 12:54:05;;;;;;;16.10;7.15;;;;;;;;;;5023473;28;20467;-60
2021/05/11 12:56:48;;;;;;;18.60;7.80;;;;;;;;;;5023933;28;20029;-58
2021/05/11 12:59:51;;;;;;;15.82;6.88;;;;;;;;;;5024893;28;20030;-60
2021/05/11 13:16:51;;;;;;;20.15;8.75;;;;;;;;;;5037485;22;20136;-60
2021/05/11 13:27:53;;;;;;;15.73;7.10;;;;;;;;;;4972175;28;20042;-60
2021/05/11 13:35:36;;;;;;;16.83;7.18;;;;;;;;;;4972107;28;20078;-60
2021/05/11 13:38:03;;;;;;;15.13;6.40;;;;;;;;;;5000758;28;20037;-58
2021/05/11 13:40:29;;;;;;;15.27;6.70;;;;;;;;;;4988672;28;20027;-60
2021/05/11 13:42:55;;;;;;;15.57;6.30;;;;;;;;;;4646018;28;10000507;-58
2021/05/11 13:45:24;;;;;;;15.50;6.22;;;;;;;;;;4989559;28;20030;-60
2021/05/11 13:47:59;;;;;;;15.30;6.38;;;;;;;;;;4999718;28;20065;-59
2021/05/11 13:51:02;;;;;;;15.93;7.00;;;;;;;;;;4998530;28;20038;-59
2021/05/11 13:53:21;;;;;;;15.00;6.55;;;;;;;;;;4997568;28;20395;-63
2021/05/11 14:03:49;;;;;;;17.45;7.40;;;;;;;;;;5011070;28;20033;-59
2021/05/11 14:06:15;;;;;;;16.70;7.15;;;;;;;;;;5009714;28;20049;-59
2021/05/11 14:08:41;;;;;;;17.05;7.72;;;;;;;;;;5009442;28;20065;-60
2021/05/11 14:11:07;;;;;;;15.38;7.25;;;;;;;;;;5010156;28;20117;-60
2021/05/11 14:13:33;;;;;;;15.70;7.22;;;;;;;;;;5008341;28;20136;-59
2021/05/11 14:15:59;;;;;;;17.10;8.63;;;;;;;;;;5010936;28;20049;-59
2021/05/11 14:18:25;;;;;;;16.98;8.18;;;;;;;;;;5012482;28;20021;-57
2021/05/11 14:20:51;;;;;;;15.77;7.90;;;;;;;;;;5000483;28;20085;-59
2021/05/11 14:23:17;;;;;;;16.55;7.75;;;;;;;;;;5003541;28;20026;-58
2021/05/11 14:25:43;;;;;;;16.80;7.97;;;;;;;;;;5002789;28;20023;-58
2021/05/11 14:28:09;;;;;;;19.88;8.50;;;;;;;;;;5001964;28;20037;-59
2021/05/11 14:30:35;;;;;;;17.20;8.45;;;;;;;;;;5001712;28;20018;-56
2021/05/11 14:33:02;;;;;;;16.73;8.50;;;;;;;;;;5002000;28;20022;-59
2021/05/11 14:35:28;;;;;;;17.85;8.55;;;;;;;;;;5002133;28;20026;-59
2021/05/11 14:37:54;;;;;;;17.40;8.35;;;;;;;;;;5003596;28;20057;-57
2021/05/11 14:40:20;;;;;;;18.30;9.25;;;;;;;;;;5001631;28;20495;-60
2021/05/11 14:42:46;;;;;;;22.15;12.52;;;;;;;;;;5001883;28;20121;-59
2021/05/11 14:45:12;;;;;;;17.20;8.90;;;;;;;;;;4650769;28;10000201;-58
2021/05/11 14:47:44;;;;;;;16.17;8.32;;;;;;;;;;4996636;28;20018;-59
2021/05/11 14:50:11;;;;;;;18.48;9.18;;;;;;;;;;4998455;28;20033;-60
2021/05/11 14:52:37;;;;;;;18.20;9.73;;;;;;;;;;4995825;28;20490;-59
2021/05/11 14:55:04;;;;;;;19.25;9.88;;;;;;;;;;4999448;28;20023;-59
2021/05/11 14:57:30;;;;;;;17.70;8.95;;;;;;;;;;5009687;28;20503;-59
2021/05/11 14:59:56;;;;;;;17.67;8.55;;;;;;;;;;5011840;28;20056;-59
2021/05/11 15:02:22;;;;;;;19.55;9.30;;;;;;;;;;5012172;28;20025;-59
2021/05/11 15:04:48;;;;;;;16.90;8.82;;;;;;;;;;5012135;28;20522;-59
2021/05/11 15:07:14;;;;;;;17.65;9.20;;;;;;;;;;5011039;28;20030;-59
2021/05/11 15:09:40;;;;;;;17.95;9.10;;;;;;;;;;5010054;28;20029;-58
2021/05/11 15:12:07;;;;;;;18.30;9.32;;;;;;;;;;5012195;28;20026;-59
2021/05/11 15:14:33;;;;;;;20.42;9.27;;;;;;;;;;5012438;28;20036;-59
2021/05/11 15:17:58;;;;;;;16.67;8.48;;;;;;;;;;5010984;28;20520;-59
2021/05/11 15:19:45;;;;;;;16.27;8.20;;;;;;;;;;5011576;28;20104;-58
2021/05/11 15:22:11;;;;;;;16.50;8.63;;;;;;;;;;5010540;28;20068;-59
2021/05/11 15:24:37;;;;;;;19.23;8.93;;;;;;;;;;5010960;28;20029;-60
2021/05/11 15:27:03;;;;;;;17.52;8.85;;;;;;;;;;5012252;28;20112;-59
2021/05/11 15:29:29;;;;;;;18.23;9.15;;;;;;;;;;5011657;28;20049;-58
2021/05/11 15:31:57;;;;;;;17.92;9.60;;;;;;;;;;5012405;28;20030;-58
2021/05/11 15:34:23;;;;;;;16.30;8.20;;;;;;;;;;5010518;28;20029;-59
2021/05/11 15:36:49;;;;;;;16.80;9.18;;;;;;;;;;4652791;28;10000270;-59
2021/05/11 15:39:15;;;;;;;17.20;9.10;;;;;;;;;;4988424;28;20080;-56
2021/05/11 15:41:41;;;;;;;17.33;9.38;;;;;;;;;;4996505;28;20037;-59
2021/05/11 15:44:08;;;;;;;16.55;8.45;;;;;;;;;;4997148;28;20026;-59
2021/05/11 15:46:34;;;;;;;17.48;9.18;;;;;;;;;;4996511;28;20026;-58
2021/05/11 15:49:00;;;;;;;16.25;7.97;;;;;;;;;;4995269;28;20034;-59
2021/05/11 15:51:26;;;;;;;17.02;9.02;;;;;;;;;;4999170;28;20045;-60
2021/05/11 15:53:52;;;;;;;18.40;10.27;;;;;;;;;;4998354;28;20036;-58
2021/05/11 15:56:18;;;;;;;18.75;9.20;;;;;;;;;;4995635;28;20178;-58
2021/05/11 15:58:44;;;;;;;17.95;8.95;;;;;;;;;;4998431;28;20030;-59
2021/05/11 16:01:10;;;;;;;19.23;9.95;;;;;;;;;;4997939;28;20038;-57
2021/05/11 16:03:37;;;;;;;17.05;8.40;;;;;;;;;;4996120;28;20116;-59
2021/05/11 16:06:03;;;;;;;17.17;8.70;;;;;;;;;;4994172;28;20029;-59
2021/05/11 16:08:29;;;;;;;17.35;9.05;;;;;;;;;;4998215;28;20026;-58
2021/05/11 16:10:55;;;;;;;17.88;8.52;;;;;;;;;;4996626;28;20026;-55
2021/05/11 16:13:23;;;;;;;17.00;8.60;;;;;;;;;;4995059;28;20122;-59
2021/05/11 16:15:50;;;;;;;16.77;9.15;;;;;;;;;;4997937;28;20161;-60
2021/05/11 16:18:16;;;;;;;17.30;8.40;;;;;;;;;;4997207;28;20031;-60
2021/05/11 16:20:42;;;;;;;17.95;9.15;;;;;;;;;;4996505;28;20023;-59
2021/05/11 16:23:08;;;;;;;19.10;10.45;;;;;;;;;;5000744;28;20033;-60
2021/05/11 16:25:35;;;;;;;18.45;10.45;;;;;;;;;;5000791;28;20180;-59
2021/05/11 16:28:04;;;;;;;19.17;10.35;;;;;;;;;;5009435;28;20188;-60
2021/05/11 16:30:30;;;;;;;20.13;10.57;;;;;;;;;;5010228;28;20200;-59
2021/05/11 16:32:56;;;;;;;17.67;9.98;;;;;;;;;;5011865;28;20410;-59
2021/05/11 16:35:22;;;;;;;18.30;9.98;;;;;;;;;;5010564;28;20080;-61
2021/05/11 16:37:48;;;;;;;20.58;12.90;;;;;;;;;;5000616;28;20673;-60
2021/05/11 16:40:15;;;;;;;17.90;9.55;;;;;;;;;;4999320;28;20041;-60
2021/05/11 16:42:42;;;;;;;18.00;9.57;;;;;;;;;;4999588;28;20017;-60
2021/05/11 16:45:11;;;;;;;17.90;10.05;;;;;;;;;;4999563;28;20037;-59
2021/05/11 16:47:53;;;;;;;17.60;10.02;;;;;;;;;;5006053;28;20024;-59
2021/05/11 16:50:22;;;;;;;18.30;10.05;;;;;;;;;;5006034;28;20282;-58
2021/05/11 16:52:48;;;;;;;18.75;10.32;;;;;;;;;;5007263;28;20109;-60
2021/05/11 16:55:15;;;;;;;18.48;11.02;;;;;;;;;;5005703;28;20034;-60
2021/05/11 16:57:41;;;;;;;17.77;9.77;;;;;;;;;;5010690;28;20029;-59
2021/05/11 17:00:08;;;;;;;18.95;10.98;;;;;;;;;;5005533;28;20510;-60
2021/05/11 17:02:34;;;;;;;19.45;11.30;;;;;;;;;;5007553;28;20037;-60
2021/05/11 17:05:00;;;;;;;18.98;11.07;;;;;;;;;;5011579;28;20077;-58
2021/05/11 17:07:26;;;;;;;18.90;10.85;;;;;;;;;;5011521;28;20375;-60
2021/05/11 17:09:52;;;;;;;18.05;9.82;;;;;;;;;;5009746;28;20030;-61
2021/05/11 17:12:18;;;;;;;21.75;10.63;;;;;;;;;;5011605;28;20042;-60
2021/05/11 17:14:44;;;;;;;18.60;11.13;;;;;;;;;;5011228;28;20065;-59
2021/05/11 17:17:10;;;;;;;20.73;10.88;;;;;;;;;;5011550;28;20504;-59
2021/05/11 17:19:36;;;;;;;19.63;11.10;;;;;;;;;;5010671;28;20452;-60
2021/05/11 17:22:03;;;;;;;19.13;11.63;;;;;;;;;;5012012;28;20038;-55
2021/05/11 17:24:29;;;;;;;22.20;13.35;;;;;;;;;;5013403;28;20037;-58
2021/05/11 17:26:55;;;;;;;20.38;12.32;;;;;;;;;;4663071;28;10000398;-60
2021/05/11 17:29:21;;;;;;;21.50;11.57;;;;;;;;;;4990870;28;20057;-60
2021/05/11 17:31:48;;;;;;;18.77;10.75;;;;;;;;;;4991856;28;20644;-60
2021/05/11 17:34:16;;;;;;;18.00;10.18;;;;;;;;;;4991420;28;20117;-58
2021/05/11 17:36:42;;;;;;;20.13;12.07;;;;;;;;;;4991369;28;20030;-60
2021/05/11 17:39:08;;;;;;;19.20;10.82;;;;;;;;;;4999617;28;20026;-60
2021/05/11 17:41:34;;;;;;;18.85;11.05;;;;;;;;;;4998925;28;20083;-59
2021/05/11 17:44:01;;;;;;;20.23;11.63;;;;;;;;;;5001542;28;20068;-60
2021/05/11 17:46:27;;;;;;;19.42;11.23;;;;;;;;;;4991173;28;20026;-59
2021/05/11 17:48:53;;;;;;;19.25;10.82;;;;;;;;;;4991008;28;20106;-54
2021/05/11 17:51:21;;;;;;;23.48;10.73;;;;;;;;;;4989970;28;20026;-58
2021/05/11 17:53:47;;;;;;;18.35;10.18;;;;;;;;;;4989493;28;20102;-61
2021/05/11 17:56:13;;;;;;;18.17;10.13;;;;;;;;;;4991010;28;20034;-60
2021/05/11 17:58:39;;;;;;;18.98;10.80;;;;;;;;;;4990421;28;20032;-55
2021/05/11 18:01:05;;;;;;;19.27;10.77;;;;;;;;;;4991335;28;20026;-60
2021/05/11 18:03:31;;;;;;;39.05;12.68;;;;;;;;;;4990796;28;20026;-60
2021/05/11 18:05:58;;;;;;;19.80;11.40;;;;;;;;;;5001776;28;20026;-60
2021/05/11 18:08:29;;;;;;;19.45;11.07;;;;;;;;;;5009963;28;20105;-60
2021/05/11 18:10:56;;;;;;;19.40;10.65;;;;;;;;;;5010202;28;20021;-60
2021/05/11 18:13:23;;;;;;;19.35;10.73;;;;;;;;;;5010694;28;20069;-59
2021/05/11 18:15:49;;;;;;;21.85;12.73;;;;;;;;;;5009771;28;20049;-60
2021/05/11 18:18:15;;;;;;;20.52;10.88;;;;;;;;;;5010075;28;20056;-59
2021/05/11 18:20:41;;;;;;;20.35;11.90;;;;;;;;;;5009409;28;20025;-57
2021/05/11 18:23:07;;;;;;;19.65;11.23;;;;;;;;;;4997412;28;20535;-60
2021/05/11 18:25:33;;;;;;;19.33;11.15;;;;;;;;;;4990478;28;20081;-60
2021/05/11 18:28:00;;;;;;;21.38;12.55;;;;;;;;;;4990056;28;20031;-58
2021/05/11 18:30:26;;;;;;;20.50;11.88;;;;;;;;;;4989805;28;20450;-56
2021/05/11 18:32:52;;;;;;;19.30;11.32;;;;;;;;;;4990418;28;20030;-60
2021/05/11 18:35:23;;;;;;;19.98;11.68;;;;;;;;;;4989131;28;20117;-60
2021/05/11 18:38:04;;;;;;;19.67;11.70;;;;;;;;;;4990303;28;20037;-61
2021/05/11 18:40:30;;;;;;;19.95;11.93;;;;;;;;;;4989019;28;20506;-59
2021/05/11 18:42:57;;;;;;;20.58;12.02;;;;;;;;;;4989626;28;20041;-61
2021/05/11 18:45:23;;;;;;;20.48;12.23;;;;;;;;;;4988682;28;20084;-58
2021/05/11 18:47:56;;;;;;;20.73;12.63;;;;;;;;;;4990172;28;20034;-60
2021/05/11 18:50:27;;;;;;;22.70;13.35;;;;;;;;;;4989699;28;20020;-60
2021/05/11 18:52:53;;;;;;;20.38;12.18;;;;;;;;;;4989528;28;20109;-60
2021/05/11 18:55:19;;;;;;;25.65;13.57;;;;;;;;;;4988531;28;20080;-60
2021/05/11 18:57:45;;;;;;;21.63;13.65;;;;;;;;;;4988598;28;20129;-60
2021/05/11 19:00:13;;;;;;;21.30;13.32;;;;;;;;;;4988049;28;20090;-58